This is the latest recevied weather packets stored in our database for station/object CT2HRB-13. If no packets are shown the sender has not sent any weather packets the latest 10 day(s).
| Time | Temp. | Humidity | Pressure | Rain* | Wind** | Luminosity | Snow |
|---|---|---|---|---|---|---|---|
| 1777635001 | 22.22° C | 46% | 1018.9 hPa | - | - | - | - |
| 1777634702 | 22.78° C | 45% | 1019 hPa | - | - | - | - |
| 1777634402 | 22.78° C | 46% | 1019 hPa | - | - | - | - |
| 1777634101 | 22.78° C | 47% | 1019.1 hPa | - | - | - | - |
| 1777633802 | 22.78° C | 45% | 1019.1 hPa | - | - | - | - |
| 1777633501 | 22.22° C | 48% | 1019.1 hPa | - | - | - | - |
| 1777633202 | 22.22° C | 47% | 1019.3 hPa | - | - | - | - |
| 1777632901 | 21.67° C | 49% | 1019.1 hPa | - | - | - | - |
| 1777632601 | 21.11° C | 48% | 1019.1 hPa | - | - | - | - |
| 1777632302 | 20.56° C | 50% | 1019.3 hPa | - | - | - | - |
| 1777632002 | 20° C | 51% | 1019.4 hPa | - | - | - | - |
| 1777631701 | 20° C | 51% | 1019.4 hPa | - | - | - | - |
| 1777631401 | 20° C | 52% | 1019.4 hPa | - | - | - | - |
| 1777631101 | 20° C | 52% | 1019.2 hPa | - | - | - | - |
| 1777630802 | 20° C | 53% | 1019.2 hPa | - | - | - | - |
| 1777630502 | 20° C | 53% | 1019.3 hPa | - | - | - | - |
| 1777630201 | 20.56° C | 53% | 1019.3 hPa | - | - | - | - |
| 1777629902 | 20.56° C | 52% | 1019.1 hPa | - | - | - | - |
| 1777629602 | 20.56° C | 50% | 1019.2 hPa | - | - | - | - |
| 1777629302 | 20° C | 52% | 1019.1 hPa | - | - | - | - |
| 1777629002 | 20° C | 51% | 1019.1 hPa | - | - | - | - |
| 1777628702 | 20° C | 51% | 1019.2 hPa | - | - | - | - |
| 1777628402 | 19.44° C | 54% | 1019.1 hPa | - | - | - | - |
| 1777628102 | 19.44° C | 54% | 1019 hPa | - | - | - | - |
| 1777627802 | 18.89° C | 56% | 1019.1 hPa | - | - | - | - |
* Rain since midnight (hover to see other rain measurements)
** Current wind speed in m/s (hover to see current wind gust speed)